createdAt,value
2022-11-15T00:02:44.976Z,99468.09
2022-11-15T00:05:37.072Z,99462.97
2022-11-15T00:08:30.754Z,99462.28
2022-11-15T00:11:21.216Z,99455.53
2022-11-15T00:14:11.471Z,99457.44
2022-11-15T00:17:01.780Z,99447.91
2022-11-15T00:19:51.886Z,99457.84
2022-11-15T00:22:44.755Z,99449.41
2022-11-15T00:25:35.161Z,99462.47
2022-11-15T00:28:26.063Z,99460.13
2022-11-15T00:31:16.336Z,99462.31
2022-11-15T00:34:07.105Z,99453.63
2022-11-15T00:36:57.209Z,99459.38
2022-11-15T00:39:47.342Z,99463.34
2022-11-15T00:42:37.155Z,99458.94
2022-11-15T00:45:28.929Z,99460.41
2022-11-15T00:48:19.378Z,99468.19
2022-11-15T00:51:09.996Z,99460.53
2022-11-15T00:54:00.227Z,99454.69
2022-11-15T00:56:50.503Z,99457.25
2022-11-15T00:59:41.988Z,99458.91
2022-11-15T01:02:33.890Z,99457.00
2022-11-15T01:05:24.392Z,99457.69
2022-11-15T01:08:18.192Z,99453.50
2022-11-15T01:11:10.778Z,99451.66
2022-11-15T01:14:00.849Z,99439.88
2022-11-15T01:16:50.988Z,99436.63
2022-11-15T01:19:41.179Z,99436.34
2022-11-15T01:22:34.335Z,99433.72
2022-11-15T01:25:24.259Z,99440.94
2022-11-15T01:28:14.656Z,99435.88
2022-11-15T01:31:10.286Z,99433.00
2022-11-15T01:34:00.484Z,99444.25
2022-11-15T01:36:50.891Z,99439.41
2022-11-15T01:39:41.340Z,99440.13
2022-11-15T01:42:34.354Z,99434.38
2022-11-15T01:45:24.361Z,99423.06
2022-11-15T01:48:14.717Z,99420.19
2022-11-15T01:51:10.311Z,99421.31
2022-11-15T01:54:05.672Z,99418.47
2022-11-15T01:57:16.060Z,99433.44
2022-11-15T02:00:08.111Z,99429.19
2022-11-15T02:02:58.559Z,99426.78
2022-11-15T02:05:48.514Z,99426.13
2022-11-15T02:08:38.735Z,99427.50
2022-11-15T02:11:29.347Z,99419.97
2022-11-15T02:14:21.075Z,99429.19
2022-11-15T02:17:30.210Z,99415.72
2022-11-15T02:20:19.970Z,99414.22
2022-11-15T02:23:34.902Z,99414.78
2022-11-15T02:26:46.865Z,99410.09
2022-11-15T02:29:49.148Z,99405.69
2022-11-15T02:32:44.839Z,99407.59
2022-11-15T02:35:44.275Z,99409.38
2022-11-15T02:38:49.862Z,99408.25
2022-11-15T02:41:55.621Z,99401.75
2022-11-15T02:44:46.886Z,99401.63
2022-11-15T02:47:44.251Z,99408.94
2022-11-15T02:50:35.276Z,99402.34
2022-11-15T02:53:26.799Z,99404.72
2022-11-15T02:56:16.841Z,99416.69
2022-11-15T02:59:30.734Z,99416.81
2022-11-15T03:02:56.479Z,99411.75
2022-11-15T03:05:55.506Z,99407.59
2022-11-15T03:09:07.550Z,99406.75
2022-11-15T03:12:17.988Z,99386.88
2022-11-15T03:15:21.368Z,99385.94
2022-11-15T03:18:22.925Z,99385.28
2022-11-15T03:21:15.745Z,99379.63
2022-11-15T03:24:09.746Z,99377.72
2022-11-15T03:27:05.889Z,99379.63
2022-11-15T03:30:01.538Z,99375.09
2022-11-15T03:32:56.718Z,99370.22
2022-11-15T03:35:48.642Z,99374.63
2022-11-15T03:38:39.810Z,99367.06
2022-11-15T03:41:44.973Z,99370.50
2022-11-15T03:44:43.252Z,99368.25
2022-11-15T03:48:06.179Z,99353.38
2022-11-15T03:50:56.604Z,99360.56
2022-11-15T03:53:47.176Z,99363.28
2022-11-15T03:56:37.458Z,99358.84
2022-11-15T03:59:27.762Z,99360.78
2022-11-15T04:02:20.686Z,99356.09
2022-11-15T04:05:11.367Z,99354.59
2022-11-15T04:08:01.603Z,99362.28
2022-11-15T04:10:52.530Z,99354.31
2022-11-15T04:13:42.583Z,99349.91
2022-11-15T04:16:32.822Z,99341.34
2022-11-15T04:19:41.685Z,99344.94
2022-11-15T04:22:50.546Z,99338.06
2022-11-15T04:25:40.971Z,99338.31
2022-11-15T04:28:31.229Z,99349.38
2022-11-15T04:31:21.190Z,99341.63
2022-11-15T04:34:11.364Z,99340.81
2022-11-15T04:37:15.310Z,99339.84
2022-11-15T04:40:06.128Z,99340.94
2022-11-15T04:43:03.271Z,99346.75
2022-11-15T04:45:54.109Z,99349.09
2022-11-15T04:48:44.435Z,99342.19
2022-11-15T04:51:34.692Z,99344.69
2022-11-15T04:54:24.958Z,99341.94
2022-11-15T04:57:15.551Z,99337.94
2022-11-15T05:00:08.988Z,99341.13
2022-11-15T05:03:17.771Z,99342.34
2022-11-15T05:06:08.105Z,99343.72
2022-11-15T05:08:58.739Z,99349.38
2022-11-15T05:11:49.136Z,99350.44
2022-11-15T05:14:39.063Z,99349.19
2022-11-15T05:17:29.495Z,99340.28
2022-11-15T05:20:22.675Z,99348.91
2022-11-15T05:23:12.943Z,99340.94
2022-11-15T05:26:08.973Z,99350.25
2022-11-15T05:29:00.311Z,99334.97
2022-11-15T05:31:50.890Z,99329.34
2022-11-15T05:34:41.316Z,99323.41
2022-11-15T05:37:31.358Z,99321.34
2022-11-15T05:40:21.891Z,99326.47
2022-11-15T05:43:12.343Z,99322.91
2022-11-15T05:46:05.279Z,99314.47
2022-11-15T05:48:57.461Z,99313.78
2022-11-15T05:51:51.911Z,99313.78
2022-11-15T05:54:45.317Z,99323.41
2022-11-15T05:57:35.940Z,99323.66
2022-11-15T06:00:26.050Z,99319.28
2022-11-15T06:03:16.350Z,99325.34
2022-11-15T06:06:09.982Z,99324.25
2022-11-15T06:09:04.112Z,99327.13
2022-11-15T06:11:54.304Z,99332.00
2022-11-15T06:14:44.561Z,99333.25
2022-11-15T06:17:37.417Z,99335.16
2022-11-15T06:20:29.560Z,99332.00
2022-11-15T06:23:19.843Z,99335.88
2022-11-15T06:26:10.031Z,99340.81
2022-11-15T06:29:00.239Z,99337.06
2022-11-15T06:31:50.491Z,99330.22
2022-11-15T06:34:43.535Z,99328.44
2022-11-15T06:37:34.609Z,99334.91
2022-11-15T06:40:24.882Z,99336.53
2022-11-15T06:43:15.662Z,99330.75
2022-11-15T06:46:06.908Z,99326.75
2022-11-15T06:48:57.033Z,99332.41
2022-11-15T06:51:46.969Z,99334.63
2022-11-15T06:54:39.895Z,99329.16
2022-11-15T06:57:29.773Z,99334.94
2022-11-15T07:00:21.503Z,99329.94
2022-11-15T07:03:11.620Z,99334.63
2022-11-15T07:06:07.161Z,99331.06
2022-11-15T07:08:58.061Z,99337.00
2022-11-15T07:11:48.294Z,99337.97
2022-11-15T07:14:38.400Z,99335.09
2022-11-15T07:17:28.620Z,99347.34
2022-11-15T07:20:19.216Z,99333.03
2022-11-15T07:23:09.470Z,99329.31
2022-11-15T07:26:00.309Z,99325.75
2022-11-15T07:28:50.628Z,99335.25
2022-11-15T07:31:40.877Z,99334.72
2022-11-15T07:34:31.178Z,99334.25
2022-11-15T07:37:21.572Z,99343.50
2022-11-15T07:40:12.266Z,99338.53
2022-11-15T07:43:08.074Z,99336.47
2022-11-15T07:45:59.619Z,99333.84
2022-11-15T07:48:50.195Z,99333.44
2022-11-15T07:51:40.268Z,99345.97
2022-11-15T07:54:30.570Z,99336.63
2022-11-15T07:57:20.839Z,99330.81
2022-11-15T08:00:11.736Z,99330.03
2022-11-15T08:03:10.078Z,99321.16
2022-11-15T08:06:04.271Z,99325.31
2022-11-15T08:08:55.513Z,99322.97
2022-11-15T08:11:45.693Z,99324.78
2022-11-15T08:14:36.353Z,99327.25
2022-11-15T08:17:27.045Z,99320.91
2022-11-15T08:20:17.437Z,99315.00
2022-11-15T08:23:08.655Z,99321.19
2022-11-15T08:26:04.150Z,99322.84
2022-11-15T08:28:54.248Z,99317.31
2022-11-15T08:31:44.302Z,99318.44
2022-11-15T08:34:38.012Z,99320.91
2022-11-15T08:37:28.198Z,99314.56
2022-11-15T08:40:19.646Z,99314.00
2022-11-15T08:43:12.948Z,99309.75
2022-11-15T08:46:05.570Z,99304.66
2022-11-15T08:48:58.620Z,99298.88
2022-11-15T08:51:48.784Z,99301.47
2022-11-15T08:54:38.833Z,99297.03
2022-11-15T08:57:32.182Z,99301.19
2022-11-15T09:00:22.483Z,99304.34
2022-11-15T09:03:12.681Z,99318.72
2022-11-15T09:06:04.939Z,99305.19
2022-11-15T09:08:57.786Z,99307.41
2022-11-15T09:11:48.215Z,99307.13
2022-11-15T09:14:38.697Z,99310.56
2022-11-15T09:17:28.735Z,99307.81
2022-11-15T09:20:19.082Z,99295.41
2022-11-15T09:23:09.890Z,99297.47
2022-11-15T09:26:02.145Z,99295.00
2022-11-15T09:28:52.730Z,99291.69
2022-11-15T09:31:42.899Z,99301.34
2022-11-15T09:34:33.067Z,99293.75
2022-11-15T09:37:26.343Z,99291.25
2022-11-15T09:40:18.564Z,99289.75
2022-11-15T09:43:24.036Z,99292.09
2022-11-15T09:46:56.215Z,99285.22
2022-11-15T09:50:00.402Z,99286.72
2022-11-15T09:52:42.601Z,99286.16
2022-11-15T09:55:22.304Z,99293.47
2022-11-15T09:58:16.868Z,99286.72
2022-11-15T10:00:53.710Z,99288.91
2022-11-15T10:03:31.626Z,99284.91
2022-11-15T10:06:06.131Z,99278.03
2022-11-15T10:09:24.076Z,99280.38
2022-11-15T10:11:58.574Z,99273.47
2022-11-15T10:14:32.098Z,99268.22
2022-11-15T10:17:06.590Z,99269.19
2022-11-15T10:20:04.103Z,99274.59
2022-11-15T10:22:45.804Z,99271.16
2022-11-15T10:25:26.174Z,99267.53
2022-11-15T10:28:16.495Z,99267.41
2022-11-15T10:30:55.698Z,99262.59
2022-11-15T10:33:38.207Z,99258.03
2022-11-15T10:36:14.767Z,99254.59
2022-11-15T10:38:49.378Z,99244.22
2022-11-15T10:41:36.096Z,99241.63
2022-11-15T10:44:07.559Z,99245.63
2022-11-15T10:46:47.139Z,99243.16
2022-11-15T10:49:29.629Z,99239.97
2022-11-15T10:52:17.868Z,99239.56
2022-11-15T10:55:12.514Z,99229.63
2022-11-15T10:57:52.716Z,99225.22
2022-11-15T11:00:31.111Z,99222.88
2022-11-15T11:03:08.183Z,99217.22
2022-11-15T11:05:43.152Z,99209.09
2022-11-15T11:08:14.804Z,99202.59
2022-11-15T11:11:04.112Z,99198.66
2022-11-15T11:13:40.859Z,99196.59
2022-11-15T11:16:15.180Z,99203.88
2022-11-15T11:18:50.859Z,99210.34
2022-11-15T11:22:01.305Z,99216.56
2022-11-15T11:24:48.983Z,99207.03
2022-11-15T11:27:41.849Z,99194.22
2022-11-15T11:30:21.584Z,99199.03
2022-11-15T11:33:17.033Z,99190.75
2022-11-15T11:36:04.471Z,99187.06
2022-11-15T11:38:59.155Z,99196.56
2022-11-15T11:41:45.062Z,99194.25
2022-11-15T11:44:52.248Z,99182.22
2022-11-15T11:47:36.000Z,99171.63
2022-11-15T11:50:20.915Z,99166.09
2022-11-15T11:53:03.858Z,99159.75
2022-11-15T11:55:39.846Z,99153.13
2022-11-15T11:58:23.005Z,99149.13
2022-11-15T12:01:01.080Z,99140.69
2022-11-15T12:03:48.900Z,99145.88
2022-11-15T12:06:48.287Z,99144.66
2022-11-15T12:09:47.480Z,99140.00
2022-11-15T12:12:31.025Z,99134.53
2022-11-15T12:15:16.783Z,99136.88
2022-11-15T12:17:52.212Z,99132.22
2022-11-15T12:20:26.367Z,99125.31
2022-11-15T12:23:14.997Z,99118.28
2022-11-15T12:26:07.416Z,99117.31
2022-11-15T12:29:06.818Z,99114.69
2022-11-15T12:31:43.209Z,99113.56
2022-11-15T12:34:20.836Z,99109.41
2022-11-15T12:36:53.066Z,99104.19
2022-11-15T12:40:07.512Z,99097.09
2022-11-15T12:42:59.998Z,99095.13
2022-11-15T12:45:40.589Z,99085.22
2022-11-15T12:48:18.223Z,99089.63
2022-11-15T12:51:00.727Z,99083.19
2022-11-15T12:53:34.276Z,99079.84
2022-11-15T12:56:17.635Z,99081.59
2022-11-15T12:58:52.401Z,99069.31
2022-11-15T13:01:31.686Z,99066.16
2022-11-15T13:04:27.907Z,99063.25
2022-11-15T13:07:05.441Z,99061.19
2022-11-15T13:09:37.002Z,99067.28
2022-11-15T13:12:14.665Z,99070.47
2022-11-15T13:14:46.213Z,99075.88
2022-11-15T13:17:25.508Z,99065.41
2022-11-15T13:20:17.977Z,99060.16
2022-11-15T13:23:03.126Z,99060.09
2022-11-15T13:25:40.519Z,99057.88
2022-11-15T13:28:14.913Z,99057.88
2022-11-15T13:30:53.630Z,99056.50
2022-11-15T13:33:37.463Z,99058.41
2022-11-15T13:36:25.664Z,99049.34
2022-11-15T13:38:59.387Z,99050.78
2022-11-15T13:41:36.421Z,99045.69
2022-11-15T13:44:21.307Z,99040.59
2022-11-15T13:47:18.493Z,99043.75
2022-11-15T13:49:52.977Z,99037.53
2022-11-15T13:52:32.396Z,99029.81
2022-11-15T13:55:12.084Z,99036.72
2022-11-15T13:57:49.720Z,99031.03
2022-11-15T14:00:42.666Z,99027.59
2022-11-15T14:03:27.373Z,99025.84
2022-11-15T14:06:17.150Z,99022.53
2022-11-15T14:09:11.546Z,99022.69
2022-11-15T14:11:56.739Z,99011.69
2022-11-15T14:14:29.299Z,99009.19
2022-11-15T14:17:02.969Z,99000.50
2022-11-15T14:19:37.261Z,98995.97
2022-11-15T14:22:23.761Z,98986.56
2022-11-15T14:25:20.682Z,98995.31
2022-11-15T14:28:10.523Z,98998.31
2022-11-15T14:30:44.203Z,98997.06
2022-11-15T14:33:20.549Z,98997.16
2022-11-15T14:35:53.369Z,98995.09
2022-11-15T14:38:28.475Z,98992.03
2022-11-15T14:41:00.146Z,98992.53
2022-11-15T14:43:31.715Z,98988.44
2022-11-15T14:46:03.351Z,98982.81
2022-11-15T14:48:35.700Z,98975.06
2022-11-15T14:51:17.535Z,98971.06
2022-11-15T14:53:49.655Z,98971.75
2022-11-15T14:56:21.480Z,98968.31
2022-11-15T14:58:56.321Z,98971.44
2022-11-15T15:01:28.226Z,98966.06
2022-11-15T15:04:00.508Z,98964.13
2022-11-15T15:06:35.021Z,98961.88
2022-11-15T15:09:09.629Z,98964.53
2022-11-15T15:11:41.263Z,98954.56
2022-11-15T15:14:15.128Z,98959.94
2022-11-15T15:16:52.245Z,98956.13
2022-11-15T15:19:26.187Z,98956.63
2022-11-15T15:21:58.433Z,98952.44
2022-11-15T15:24:32.787Z,98943.75
2022-11-15T15:27:04.448Z,98945.91
2022-11-15T15:29:36.130Z,98949.53
2022-11-15T15:32:08.945Z,98944.34
2022-11-15T15:34:43.529Z,98940.88
2022-11-15T15:37:27.710Z,98947.19
2022-11-15T15:39:59.849Z,98939.16
2022-11-15T15:42:32.496Z,98948.81
2022-11-15T15:45:08.071Z,98943.16
2022-11-15T15:47:43.323Z,98950.56
2022-11-15T15:50:19.170Z,98935.28
2022-11-15T15:52:58.775Z,98935.94
2022-11-15T15:55:31.154Z,98944.16
2022-11-15T15:58:11.465Z,98939.75
2022-11-15T16:00:43.099Z,98945.97
2022-11-15T16:03:14.735Z,98952.84
2022-11-15T16:05:46.593Z,98955.34
2022-11-15T16:08:27.481Z,98947.00
2022-11-15T16:10:59.150Z,98941.50
2022-11-15T16:13:30.816Z,98936.38
2022-11-15T16:16:02.398Z,98938.31
2022-11-15T16:18:35.207Z,98946.03
2022-11-15T16:21:06.956Z,98935.88
2022-11-15T16:23:38.612Z,98934.72
2022-11-15T16:26:22.697Z,98939.69
2022-11-15T16:28:54.357Z,98934.09
2022-11-15T16:31:28.911Z,98935.88
2022-11-15T16:34:00.546Z,98935.41
2022-11-15T16:36:36.835Z,98934.28
2022-11-15T16:39:14.028Z,98931.38
2022-11-15T16:41:47.698Z,98924.84
2022-11-15T16:44:19.367Z,98921.56
2022-11-15T16:46:54.350Z,98919.56
2022-11-15T16:49:25.954Z,98920.34
2022-11-15T16:51:57.528Z,98913.16
2022-11-15T16:54:29.421Z,98907.31
2022-11-15T16:57:02.319Z,98899.00
2022-11-15T16:59:38.161Z,98899.53
2022-11-15T17:02:13.364Z,98908.59
2022-11-15T17:04:45.353Z,98903.19
2022-11-15T17:07:20.095Z,98907.97
2022-11-15T17:09:51.775Z,98901.59
2022-11-15T17:12:23.399Z,98898.69
2022-11-15T17:14:55.091Z,98898.69
2022-11-15T17:17:27.733Z,98887.34
2022-11-15T17:20:01.478Z,98898.22
2022-11-15T17:22:33.110Z,98890.84
2022-11-15T17:25:05.376Z,98896.91
2022-11-15T17:27:37.222Z,98898.22
2022-11-15T17:30:12.367Z,98899.84
2022-11-15T17:32:45.369Z,98904.44
2022-11-15T17:35:17.113Z,98904.88
2022-11-15T17:37:49.004Z,98906.00
2022-11-15T17:40:21.944Z,98901.38
2022-11-15T17:42:53.614Z,98901.84
2022-11-15T17:45:25.268Z,98904.16
2022-11-15T17:47:56.800Z,98898.59
2022-11-15T17:50:28.467Z,98885.13
2022-11-15T17:53:00.111Z,98883.56
2022-11-15T17:55:32.913Z,98880.41
2022-11-15T17:58:05.563Z,98876.09
2022-11-15T18:00:37.928Z,98879.41
2022-11-15T18:03:11.640Z,98861.16
2022-11-15T18:05:43.984Z,98866.84
2022-11-15T18:08:18.638Z,98862.78
2022-11-15T18:10:50.302Z,98861.81
2022-11-15T18:13:22.311Z,98859.63
2022-11-15T18:15:56.152Z,98862.03
2022-11-15T18:18:28.494Z,98854.69
2022-11-15T18:21:11.502Z,98858.78
2022-11-15T18:23:43.943Z,98859.06
2022-11-15T18:26:20.126Z,98861.38
2022-11-15T18:29:00.712Z,98864.00
2022-11-15T18:31:33.505Z,98866.00
2022-11-15T18:34:05.960Z,98860.16
2022-11-15T18:36:38.962Z,98855.13
2022-11-15T18:39:16.265Z,98856.91
2022-11-15T18:41:48.717Z,98843.34
2022-11-15T18:44:20.449Z,98837.63
2022-11-15T18:46:52.214Z,98836.31
2022-11-15T18:49:23.855Z,98832.56
2022-11-15T18:51:56.965Z,98831.44
2022-11-15T18:54:31.893Z,98825.03
2022-11-15T18:57:04.256Z,98822.94
2022-11-15T18:59:38.676Z,98818.50
2022-11-15T19:02:12.674Z,98812.44
2022-11-15T19:04:44.368Z,98816.19
2022-11-15T19:07:19.031Z,98822.41
2022-11-15T19:09:50.940Z,98823.38
2022-11-15T19:12:22.658Z,98827.66
2022-11-15T19:14:57.333Z,98818.78
2022-11-15T19:17:32.136Z,98814.47
2022-11-15T19:20:04.081Z,98806.47
2022-11-15T19:22:42.301Z,98802.53
2022-11-15T19:25:13.966Z,98800.59
2022-11-15T19:27:45.631Z,98796.50
2022-11-15T19:30:20.677Z,98798.47
2022-11-15T19:32:52.325Z,98788.13
2022-11-15T19:35:24.086Z,98789.25
2022-11-15T19:37:55.702Z,98790.25
2022-11-15T19:40:27.250Z,98796.47
2022-11-15T19:42:58.879Z,98795.00
2022-11-15T19:45:31.487Z,98795.16
2022-11-15T19:48:03.265Z,98792.72
2022-11-15T19:50:37.302Z,98788.13
2022-11-15T19:53:09.024Z,98786.16
2022-11-15T19:55:40.660Z,98781.75
2022-11-15T19:58:12.267Z,98786.31
2022-11-15T20:00:43.926Z,98785.34
2022-11-15T20:03:21.019Z,98794.72
2022-11-15T20:05:52.601Z,98791.09
2022-11-15T20:08:24.250Z,98797.16
2022-11-15T20:10:56.013Z,98797.63
2022-11-15T20:13:28.370Z,98801.41
2022-11-15T20:16:00.027Z,98800.69
2022-11-15T20:18:38.604Z,98793.63
2022-11-15T20:21:10.178Z,98785.88
2022-11-15T20:23:54.117Z,98777.41
2022-11-15T20:26:26.201Z,98781.69
2022-11-15T20:29:01.274Z,98774.84
2022-11-15T20:31:35.761Z,98766.34
2022-11-15T20:34:07.613Z,98773.25
2022-11-15T20:36:42.040Z,98764.88
2022-11-15T20:39:13.786Z,98764.75
2022-11-15T20:41:45.359Z,98763.75
2022-11-15T20:44:23.181Z,98765.22
2022-11-15T20:46:57.635Z,98763.44
2022-11-15T20:49:32.309Z,98769.50
2022-11-15T20:52:03.998Z,98774.75
2022-11-15T20:54:37.004Z,98759.97
2022-11-15T20:57:08.574Z,98755.41
2022-11-15T20:59:40.167Z,98755.50
2022-11-15T21:02:16.050Z,98750.59
2022-11-15T21:04:47.747Z,98750.25
2022-11-15T21:07:19.313Z,98750.75
2022-11-15T21:10:09.932Z,98744.88
2022-11-15T21:12:44.106Z,98738.78
2022-11-15T21:15:15.869Z,98739.78
2022-11-15T21:17:47.472Z,98739.94
2022-11-15T21:20:19.176Z,98741.59
2022-11-15T21:22:51.778Z,98741.41
2022-11-15T21:25:23.489Z,98739.63
2022-11-15T21:27:55.086Z,98742.91
2022-11-15T21:30:34.099Z,98738.78
2022-11-15T21:33:06.161Z,98731.75
2022-11-15T21:35:37.928Z,98728.09
2022-11-15T21:38:12.524Z,98726.78
2022-11-15T21:40:44.237Z,98725.16
2022-11-15T21:43:15.786Z,98711.38
2022-11-15T21:46:01.386Z,98714.19
2022-11-15T21:48:36.709Z,98708.81
2022-11-15T21:51:11.028Z,98699.94
2022-11-15T21:53:42.840Z,98702.41
2022-11-15T21:56:18.857Z,98692.22
2022-11-15T21:58:51.973Z,98693.69
2022-11-15T22:01:43.643Z,98679.91
2022-11-15T22:04:18.490Z,98676.31
2022-11-15T22:06:50.465Z,98672.03
2022-11-15T22:09:22.056Z,98666.78
2022-11-15T22:11:53.718Z,98658.75
2022-11-15T22:14:25.293Z,98657.78
2022-11-15T22:16:56.881Z,98670.22
2022-11-15T22:19:31.439Z,98660.72
2022-11-15T22:22:03.112Z,98665.66
2022-11-15T22:24:39.039Z,98665.31
2022-11-15T22:27:13.538Z,98653.69
2022-11-15T22:29:45.143Z,98660.75
2022-11-15T22:32:16.809Z,98658.41
2022-11-15T22:34:48.375Z,98660.88
2022-11-15T22:37:21.178Z,98661.41
2022-11-15T22:39:53.632Z,98664.66
2022-11-15T22:42:25.447Z,98659.88
2022-11-15T22:44:57.051Z,98660.84
2022-11-15T22:47:28.692Z,98656.25
2022-11-15T22:50:00.295Z,98652.94
2022-11-15T22:52:33.918Z,98645.19
2022-11-15T22:55:06.117Z,98648.16
2022-11-15T22:57:40.811Z,98637.69
2022-11-15T23:00:14.271Z,98632.78
2022-11-15T23:02:49.605Z,98625.06
2022-11-15T23:05:24.791Z,98624.41
2022-11-15T23:07:56.433Z,98617.16
2022-11-15T23:10:46.715Z,98610.31
2022-11-15T23:13:18.981Z,98615.25
2022-11-15T23:16:33.679Z,98610.16
2022-11-15T23:19:12.856Z,98605.09
2022-11-15T23:22:07.131Z,98610.84
2022-11-15T23:24:42.854Z,98600.81
2022-11-15T23:27:20.046Z,98594.41
2022-11-15T23:30:13.128Z,98594.94
2022-11-15T23:33:03.389Z,98589.06
2022-11-15T23:35:35.326Z,98592.31
2022-11-15T23:38:06.864Z,98578.06
2022-11-15T23:40:38.493Z,98572.31
2022-11-15T23:43:13.158Z,98567.06
2022-11-15T23:45:53.017Z,98567.25
2022-11-15T23:48:24.803Z,98561.00
2022-11-15T23:50:56.485Z,98565.09
2022-11-15T23:53:30.987Z,98556.41
2022-11-15T23:56:08.929Z,98558.56
2022-11-15T23:58:43.013Z,98556.41
